Time;durP1;ratioP1;P1;durP2;ratioP2;P2;SDS_P1;SDS_P2;PMS_P1;PMS_P2;Temp;Humidity;BMP_temperature;BMP_pressure;BME280_temperature;BME280_humidity;BME280_pressure;Samples;Min_cycle;Max_cycle;Signal;HPM_P1;HPM_P2
2022/04/14 00:00:29;;;;;;;;;;;;;;;5.48;77.00;98540.72;2590487;28;19929;-79
2022/04/14 00:01:54;;;;;;;;;;;;;;;5.51;76.02;98539.81;2591026;28;20439;-79
2022/04/14 00:03:09;;;;;;;;;;;;;;;5.48;76.28;98543.31;2590257;28;20129;-78
2022/04/14 00:04:24;;;;;;;;;;;;;;;5.46;75.98;98534.69;2590204;28;19936;-79
2022/04/14 00:05:40;;;;;;;;;;;;;;;5.62;76.35;98540.63;2589972;28;19926;-78
2022/04/14 00:06:55;;;;;;;;;;;;;;;5.67;76.13;98538.00;2590872;28;20266;-78
2022/04/14 00:08:11;;;;;;;;;;;;;;;5.70;75.68;98537.13;2592369;28;19925;-79
2022/04/14 00:09:27;;;;;;;;;;;;;;;5.64;75.32;98525.03;2590279;28;19979;-79
2022/04/14 00:10:42;;;;;;;;;;;;;;;5.57;75.54;98533.72;2592441;28;20052;-79
2022/04/14 00:11:58;;;;;;;;;;;;;;;5.49;75.40;98532.06;2591628;28;20387;-80
2022/04/14 00:13:13;;;;;;;;;;;;;;;5.48;76.46;98538.13;2592552;28;19925;-79
2022/04/14 00:14:29;;;;;;;;;;;;;;;5.45;76.37;98540.75;2590935;28;19925;-79
2022/04/14 00:15:44;;;;;;;;;;;;;;;5.43;76.62;98536.41;2589956;28;20372;-79
2022/04/14 00:16:59;;;;;;;;;;;;;;;5.42;76.06;98538.13;2592374;28;19936;-78
2022/04/14 00:18:15;;;;;;;;;;;;;;;5.44;75.70;98533.78;2591271;28;20252;-78
2022/04/14 00:19:30;;;;;;;;;;;;;;;5.43;76.02;98537.25;2590235;28;19925;-83
2022/04/14 00:20:46;;;;;;;;;;;;;;;5.39;76.25;98532.97;2591947;28;20398;-79
2022/04/14 00:22:01;;;;;;;;;;;;;;;5.36;76.39;98530.41;2591822;28;20376;-78
2022/04/14 00:23:17;;;;;;;;;;;;;;;5.38;76.56;98539.03;2592058;28;19929;-78
2022/04/14 00:24:32;;;;;;;;;;;;;;;5.35;76.34;98528.69;2591985;28;20019;-79
2022/04/14 00:25:47;;;;;;;;;;;;;;;5.36;76.46;98533.00;2590371;28;20024;-79
2022/04/14 00:27:03;;;;;;;;;;;;;;;5.35;75.98;98542.50;2589889;28;19921;-79
2022/04/14 00:28:18;;;;;;;;;;;;;;;5.34;75.64;98542.53;2591525;28;20418;-79
2022/04/14 00:29:34;;;;;;;;;;;;;;;5.33;75.90;98535.63;2591539;28;19921;-78
2022/04/14 00:30:49;;;;;;;;;;;;;;;5.32;76.64;98536.47;2593299;28;19925;-78
2022/04/14 00:32:05;;;;;;;;;;;;;;;5.34;76.75;98532.16;2591983;28;19921;-79
2022/04/14 00:33:20;;;;;;;;;;;;;;;5.36;77.62;98531.25;2592744;28;19928;-79
2022/04/14 00:34:36;;;;;;;;;;;;;;;5.38;78.18;98536.44;2600800;28;20458;-85
2022/04/14 00:35:52;;;;;;;;;;;;;;;5.36;77.96;98543.38;2595721;28;20284;-80
2022/04/14 00:37:09;;;;;;;;;;;;;;;5.34;77.91;98543.38;2591000;28;19929;-79
2022/04/14 00:38:25;;;;;;;;;;;;;;;5.33;77.18;98541.66;2591311;28;19921;-78
2022/04/14 00:39:40;;;;;;;;;;;;;;;5.33;76.79;98543.41;2590862;28;19972;-79
2022/04/14 00:40:55;;;;;;;;;;;;;;;5.36;76.70;98543.38;2592921;28;19978;-79
2022/04/14 00:42:12;;;;;;;;;;;;;;;5.37;76.64;98552.88;2591136;28;19925;-79
2022/04/14 00:43:27;;;;;;;;;;;;;;;5.33;76.85;98551.19;2590585;28;19964;-78
2022/04/14 00:44:43;;;;;;;;;;;;;;;5.25;77.21;98553.81;2592082;28;19932;-79
2022/04/14 00:45:59;;;;;;;;;;;;;;;5.15;77.44;98542.59;2589952;28;20428;-78
2022/04/14 00:47:15;;;;;;;;;;;;;;;5.02;77.68;98544.38;2591012;28;19932;-79
2022/04/14 00:48:31;;;;;;;;;;;;;;;5.00;78.44;98551.31;2592362;28;19924;-79
2022/04/14 00:49:46;;;;;;;;;;;;;;;5.00;78.15;98547.84;2591843;28;20381;-79
2022/04/14 00:51:03;;;;;;;;;;;;;;;4.99;78.70;98547.00;2590797;28;20217;-78
2022/04/14 00:52:21;;;;;;;;;;;;;;;5.00;78.70;98547.84;2592852;28;19932;-79
2022/04/14 00:53:37;;;;;;;;;;;;;;;4.98;78.33;98545.28;2591012;28;20398;-80
2022/04/14 00:54:53;;;;;;;;;;;;;;;4.92;77.48;98548.75;2589571;28;19922;-79
2022/04/14 00:56:08;;;;;;;;;;;;;;;4.90;77.12;98550.50;2592592;28;20499;-79
2022/04/14 00:57:24;;;;;;;;;;;;;;;4.91;76.99;98544.44;2591935;28;20051;-81
2022/04/14 00:58:41;;;;;;;;;;;;;;;4.81;77.93;98553.09;2591639;28;19999;-78
2022/04/14 00:59:56;;;;;;;;;;;;;;;4.80;78.41;98551.38;2590184;28;19956;-79
2022/04/14 01:01:12;;;;;;;;;;;;;;;4.80;78.92;98553.97;2591859;28;19932;-78
2022/04/14 01:02:28;;;;;;;;;;;;;;;4.82;78.77;98541.88;2591488;28;19932;-79
2022/04/14 01:03:45;;;;;;;;;;;;;;;4.83;78.83;98546.19;2592737;28;19957;-79
2022/04/14 01:05:01;;;;;;;;;;;;;;;4.81;78.72;98547.91;2591465;28;19983;-80
2022/04/14 01:06:20;;;;;;;;;;;;;;;4.76;79.00;98547.09;2592307;28;19929;-79
2022/04/14 01:07:36;;;;;;;;;;;;;;;4.71;78.36;98551.41;2592656;28;19925;-78
2022/04/14 01:10:27;;;;;;;;;;;;;;;4.57;78.12;98548.84;2593113;28;19963;-79
2022/04/14 01:11:53;;;;;;;;;;;;;;;4.49;78.98;98547.13;2589976;28;19929;-83
2022/04/14 01:13:10;;;;;;;;;;;;;;;4.50;79.52;98553.19;2590776;28;19930;-79
2022/04/14 01:14:43;;;;;;;;;;;;;;;4.52;79.87;98554.03;2592960;28;20733;-79
2022/04/14 01:15:59;;;;;;;;;;;;;;;4.52;80.55;98548.84;2590915;28;19929;-78
2022/04/14 01:17:14;;;;;;;;;;;;;;;4.55;80.23;98550.59;2589258;28;19921;-79
2022/04/14 01:18:30;;;;;;;;;;;;;;;4.55;79.80;98553.19;2591545;28;20807;-78
2022/04/14 01:19:46;;;;;;;;;;;;;;;4.54;79.52;98549.72;2591656;28;20338;-78
2022/04/14 01:21:02;;;;;;;;;;;;;;;4.53;79.51;98553.19;2591549;28;19932;-79
2022/04/14 01:22:28;;;;;;;;;;;;;;;4.48;80.42;98553.19;2591333;28;20360;-79
2022/04/14 01:23:44;;;;;;;;;;;;;;;4.51;81.26;98557.50;2592548;28;20345;-78
2022/04/14 01:24:59;;;;;;;;;;;;;;;4.51;80.75;98554.91;2593192;28;19948;-79
2022/04/14 01:26:15;;;;;;;;;;;;;;;4.50;80.41;98554.03;2593704;28;20415;-78
2022/04/14 01:27:31;;;;;;;;;;;;;;;4.48;79.81;98560.09;2591066;28;19925;-78
2022/04/14 01:28:46;;;;;;;;;;;;;;;4.48;79.83;98554.94;2592402;28;20506;-83
2022/04/14 01:30:02;;;;;;;;;;;;;;;4.49;78.93;98556.66;2592061;28;19925;-83
2022/04/14 01:31:17;;;;;;;;;;;;;;;4.50;78.76;98558.38;2594603;28;19925;-79
2022/04/14 01:32:33;;;;;;;;;;;;;;;4.50;79.09;98556.63;2592415;28;20389;-79
2022/04/14 01:33:48;;;;;;;;;;;;;;;4.49;79.49;98551.47;2591288;28;19972;-83
2022/04/14 01:35:05;;;;;;;;;;;;;;;4.50;80.26;98555.78;2593019;28;19928;-80
2022/04/14 01:36:20;;;;;;;;;;;;;;;4.48;80.56;98550.59;2593546;28;19932;-78
2022/04/14 01:37:35;;;;;;;;;;;;;;;4.52;80.54;98551.44;2591865;28;20870;-78
2022/04/14 01:38:51;;;;;;;;;;;;;;;4.59;80.61;98549.72;2594006;28;19925;-78
2022/04/14 01:40:07;;;;;;;;;;;;;;;4.58;80.06;98558.34;2593130;28;19925;-78
2022/04/14 01:41:23;;;;;;;;;;;;;;;4.56;80.17;98558.34;2593482;28;20399;-79
2022/04/14 01:42:39;;;;;;;;;;;;;;;4.51;80.66;98553.16;2594764;28;19924;-80
2022/04/14 01:43:54;;;;;;;;;;;;;;;4.49;81.28;98554.06;2592828;28;19925;-78
2022/04/14 01:45:10;;;;;;;;;;;;;;;4.49;81.25;98551.47;2591074;28;19937;-78
2022/04/14 01:46:26;;;;;;;;;;;;;;;4.56;81.50;98549.72;2591484;28;19921;-78
2022/04/14 01:47:42;;;;;;;;;;;;;;;4.74;81.82;98551.38;2591862;28;19925;-80
2022/04/14 01:49:01;;;;;;;;;;;;;;;4.70;81.18;98549.69;2591161;28;19935;-79
2022/04/14 01:50:18;;;;;;;;;;;;;;;4.60;81.00;98549.69;2592652;28;20014;-78
2022/04/14 01:51:34;;;;;;;;;;;;;;;4.51;79.80;98545.38;2591650;28;19926;-79
2022/04/14 01:52:50;;;;;;;;;;;;;;;4.44;79.46;98545.41;2593423;28;19931;-79
2022/04/14 01:54:06;;;;;;;;;;;;;;;4.37;79.98;98542.84;2591910;28;20449;-78
2022/04/14 01:55:21;;;;;;;;;;;;;;;4.29;79.98;98541.97;2592552;28;19965;-81
2022/04/14 01:56:36;;;;;;;;;;;;;;;4.21;79.62;98544.56;2593765;28;19925;-79
2022/04/14 01:57:52;;;;;;;;;;;;;;;4.11;80.03;98535.06;2591988;28;19925;-78
2022/04/14 01:59:10;;;;;;;;;;;;;;;4.07;80.36;98542.00;2592684;28;19925;-79
2022/04/14 02:00:25;;;;;;;;;;;;;;;4.03;79.74;98537.66;2593857;28;20802;-78
2022/04/14 02:01:41;;;;;;;;;;;;;;;3.95;79.50;98534.22;2591388;28;19925;-80
2022/04/14 02:02:56;;;;;;;;;;;;;;;3.90;79.33;98530.75;2590910;28;19933;-79
2022/04/14 02:04:12;;;;;;;;;;;;;;;3.87;79.35;98535.94;2591616;28;19932;-79
2022/04/14 02:05:27;;;;;;;;;;;;;;;3.84;79.03;98534.19;2593081;28;20014;-80
2022/04/14 02:06:42;;;;;;;;;;;;;;;3.80;78.99;98537.66;2593333;28;19964;-78
2022/04/14 02:07:58;;;;;;;;;;;;;;;3.80;79.58;98540.25;2593720;28;19921;-79
2022/04/14 02:09:13;;;;;;;;;;;;;;;3.79;80.37;98536.81;2591530;28;19975;-79
2022/04/14 02:10:29;;;;;;;;;;;;;;;3.79;80.33;98539.41;2590746;28;19921;-78
2022/04/14 02:11:44;;;;;;;;;;;;;;;3.77;79.90;98535.94;2591263;28;19933;-79
2022/04/14 02:12:59;;;;;;;;;;;;;;;3.74;79.29;98535.91;2592381;28;20372;-79
2022/04/14 02:14:15;;;;;;;;;;;;;;;3.71;79.16;98538.50;2592329;28;19947;-79
2022/04/14 02:15:30;;;;;;;;;;;;;;;3.68;79.04;98536.75;2592744;28;19932;-79
2022/04/14 02:16:46;;;;;;;;;;;;;;;3.65;79.48;98538.50;2591357;28;19961;-79
2022/04/14 02:18:01;;;;;;;;;;;;;;;3.68;79.97;98535.91;2592875;28;20344;-78
2022/04/14 02:19:16;;;;;;;;;;;;;;;3.70;80.15;98544.56;2592587;28;19957;-78
2022/04/14 02:20:32;;;;;;;;;;;;;;;3.69;79.91;98545.41;2591828;28;19967;-79
2022/04/14 02:21:47;;;;;;;;;;;;;;;3.65;79.65;98541.94;2594535;28;20403;-80
2022/04/14 02:23:03;;;;;;;;;;;;;;;3.59;79.74;98541.06;2592298;28;19933;-79
2022/04/14 02:24:18;;;;;;;;;;;;;;;3.53;79.85;98537.63;2591218;28;20391;-78
2022/04/14 02:25:34;;;;;;;;;;;;;;;3.51;79.48;98541.94;2590888;28;19925;-78
2022/04/14 02:26:49;;;;;;;;;;;;;;;3.48;79.49;98539.31;2590765;28;20003;-78
2022/04/14 02:28:05;;;;;;;;;;;;;;;3.48;79.79;98533.28;2590449;28;20012;-78
2022/04/14 02:29:20;;;;;;;;;;;;;;;3.49;80.33;98540.19;2590730;28;19951;-78
2022/04/14 02:30:36;;;;;;;;;;;;;;;3.49;79.98;98535.91;2592720;28;19925;-81
2022/04/14 02:31:57;;;;;;;;;;;;;;;3.48;80.42;98544.50;2593079;28;19924;-78
2022/04/14 02:33:12;;;;;;;;;;;;;;;3.43;80.29;98543.63;2593632;28;19925;-78
2022/04/14 02:34:28;;;;;;;;;;;;;;;3.37;79.95;98544.47;2591302;28;19921;-78
2022/04/14 02:35:43;;;;;;;;;;;;;;;3.27;80.27;98545.31;2590694;28;20288;-79
2022/04/14 02:36:58;;;;;;;;;;;;;;;3.27;80.05;98534.09;2592392;28;20027;-79
2022/04/14 02:38:14;;;;;;;;;;;;;;;3.28;80.74;98535.84;2590913;28;19929;-78
2022/04/14 02:39:29;;;;;;;;;;;;;;;3.27;81.46;98539.28;2590862;28;20402;-78
2022/04/14 02:40:45;;;;;;;;;;;;;;;3.25;81.83;98545.31;2591936;28;19924;-78
2022/04/14 02:42:00;;;;;;;;;;;;;;;3.09;82.11;98536.63;2593454;28;20726;-78
2022/04/14 02:43:16;;;;;;;;;;;;;;;3.07;82.23;98537.47;2591910;28;20304;-79
2022/04/14 02:44:31;;;;;;;;;;;;;;;3.06;82.58;98536.63;2591217;28;20365;-78
2022/04/14 02:45:46;;;;;;;;;;;;;;;3.06;81.52;98541.78;2591725;28;20331;-78
2022/04/14 02:47:02;;;;;;;;;;;;;;;3.11;80.63;98537.50;2591405;28;19922;-78
2022/04/14 02:48:18;;;;;;;;;;;;;;;3.14;80.62;98541.81;2593618;28;20938;-78
2022/04/14 02:49:33;;;;;;;;;;;;;;;3.15;80.86;98543.56;2591137;28;19925;-81
2022/04/14 02:50:48;;;;;;;;;;;;;;;3.13;81.15;98553.03;2590784;28;19971;-83
2022/04/14 02:52:04;;;;;;;;;;;;;;;3.17;82.37;98546.16;2591949;28;20372;-79
2022/04/14 02:53:19;;;;;;;;;;;;;;;3.18;82.82;98543.56;2590562;28;19924;-79
2022/04/14 02:54:37;;;;;;;;;;;;;;;3.15;83.09;98550.47;2590269;28;19971;-78
2022/04/14 02:55:53;;;;;;;;;;;;;;;3.08;83.66;98539.22;2592647;28;19925;-78
2022/04/14 02:57:09;;;;;;;;;;;;;;;3.03;83.95;98546.09;2591302;28;20043;-83
2022/04/14 02:58:24;;;;;;;;;;;;;;;3.01;84.48;98545.22;2593236;28;19925;-79
2022/04/14 02:59:39;;;;;;;;;;;;;;;2.99;84.60;98546.94;2592315;28;20380;-79
2022/04/14 03:00:55;;;;;;;;;;;;;;;2.99;83.83;98550.38;2591678;28;19932;-78
2022/04/14 03:02:10;;;;;;;;;;;;;;;3.00;83.50;98552.09;2591554;28;19968;-80
2022/04/14 03:03:28;;;;;;;;;;;;;;;3.23;85.24;98551.34;2592781;28;19925;-79
2022/04/14 03:04:43;;;;;;;;;;;;;;;3.35;84.97;98553.09;2593798;28;19940;-79
2022/04/14 03:05:58;;;;;;;;;;;;;;;3.39;85.50;98555.69;2590805;28;19972;-79
2022/04/14 03:07:14;;;;;;;;;;;;;;;3.34;83.24;98552.25;2591720;28;20011;-79
2022/04/14 03:08:29;;;;;;;;;;;;;;;3.32;81.92;98542.72;2594029;28;19929;-78
2022/04/14 03:09:45;;;;;;;;;;;;;;;3.25;81.48;98547.03;2590345;28;20008;-78
2022/04/14 03:11:00;;;;;;;;;;;;;;;3.20;81.39;98546.16;2592202;28;20883;-79
2022/04/14 03:12:16;;;;;;;;;;;;;;;3.12;81.18;98543.53;2591020;28;19932;-78
2022/04/14 03:13:32;;;;;;;;;;;;;;;3.03;81.43;98543.50;2590767;28;19929;-79
2022/04/14 03:14:47;;;;;;;;;;;;;;;2.90;81.81;98542.59;2591628;28;19964;-78
2022/04/14 03:16:03;;;;;;;;;;;;;;;2.86;83.81;98546.00;2591630;28;19929;-77
2022/04/14 03:17:18;;;;;;;;;;;;;;;2.95;84.71;98549.53;2591728;28;19921;-78
2022/04/14 03:18:34;;;;;;;;;;;;;;;2.94;85.16;98542.63;2590891;28;20376;-78
2022/04/14 03:19:49;;;;;;;;;;;;;;;2.87;84.51;98551.19;2592844;28;19944;-77
2022/04/14 03:21:05;;;;;;;;;;;;;;;2.83;83.48;98555.47;2591401;28;19924;-78
2022/04/14 03:22:20;;;;;;;;;;;;;;;2.79;83.87;98555.44;2590182;28;19956;-77
2022/04/14 03:23:35;;;;;;;;;;;;;;;2.73;85.35;98553.72;2591035;28;19924;-80
2022/04/14 03:24:51;;;;;;;;;;;;;;;2.68;86.01;98555.41;2591227;28;19925;-82
2022/04/14 03:26:08;;;;;;;;;;;;;;;2.62;85.92;98557.97;2593018;28;19925;-78
2022/04/14 03:27:23;;;;;;;;;;;;;;;2.59;85.66;98560.53;2591756;28;20403;-78
2022/04/14 03:28:39;;;;;;;;;;;;;;;2.60;85.26;98555.34;2591363;28;20047;-77
2022/04/14 03:29:54;;;;;;;;;;;;;;;2.59;84.92;98552.78;2594060;28;20026;-78
2022/04/14 03:31:10;;;;;;;;;;;;;;;2.61;84.62;98558.81;2590565;28;19947;-78
2022/04/14 03:32:25;;;;;;;;;;;;;;;2.60;84.21;98552.78;2591163;28;20030;-78
2022/04/14 03:33:41;;;;;;;;;;;;;;;2.59;83.89;98552.78;2591212;28;19932;-82
2022/04/14 03:35:01;;;;;;;;;;;;;;;2.57;83.66;98549.28;2590244;28;20007;-80
2022/04/14 03:36:17;;;;;;;;;;;;;;;2.54;83.29;98550.16;2592133;28;19925;-79
2022/04/14 03:37:32;;;;;;;;;;;;;;;2.47;83.13;98551.84;2591792;28;19928;-78
2022/04/14 03:38:48;;;;;;;;;;;;;;;2.44;83.25;98556.13;2592318;28;19928;-78
2022/04/14 03:40:04;;;;;;;;;;;;;;;2.37;83.18;98550.91;2591796;28;19921;-78
2022/04/14 03:41:20;;;;;;;;;;;;;;;2.33;82.64;98545.72;2593640;28;20407;-78
2022/04/14 03:42:36;;;;;;;;;;;;;;;2.31;82.45;98552.59;2591187;28;19964;-78
2022/04/14 03:43:51;;;;;;;;;;;;;;;2.27;82.49;98551.72;2589626;28;19929;-84
2022/04/14 03:45:07;;;;;;;;;;;;;;;2.29;82.60;98552.56;2591752;28;19925;-79
2022/04/14 03:46:22;;;;;;;;;;;;;;;2.31;82.83;98550.88;2592709;28;19925;-79
2022/04/14 03:47:38;;;;;;;;;;;;;;;2.33;82.80;98546.56;2590306;28;20012;-79
2022/04/14 03:48:56;;;;;;;;;;;;;;;2.34;83.53;98547.44;2592662;28;19947;-79
2022/04/14 03:50:11;;;;;;;;;;;;;;;2.26;84.65;98547.41;2593256;28;19994;-78
2022/04/14 03:51:26;;;;;;;;;;;;;;;2.18;84.89;98552.50;2591622;28;20443;-79
2022/04/14 03:52:42;;;;;;;;;;;;;;;2.12;84.63;98547.28;2591786;28;20023;-78
2022/04/14 03:53:57;;;;;;;;;;;;;;;2.10;83.66;98560.19;2592271;28;19921;-78
2022/04/14 03:55:13;;;;;;;;;;;;;;;2.03;83.19;98554.97;2592507;28;20021;-79
2022/04/14 03:56:28;;;;;;;;;;;;;;;2.00;82.82;98549.75;2590345;28;19975;-79
2022/04/14 03:57:44;;;;;;;;;;;;;;;2.02;82.80;98545.47;2591514;28;19921;-78
2022/04/14 03:59:00;;;;;;;;;;;;;;;2.02;83.90;98546.34;2595761;28;20366;-78
2022/04/14 04:00:16;;;;;;;;;;;;;;;2.07;84.81;98542.06;2593350;28;20022;-79
2022/04/14 04:01:31;;;;;;;;;;;;;;;2.13;85.14;98548.16;2590079;28;19999;-79
2022/04/14 04:02:46;;;;;;;;;;;;;;;2.06;85.01;98545.50;2595024;28;19924;-78
2022/04/14 04:04:02;;;;;;;;;;;;;;;2.05;84.53;98546.38;2592621;28;19954;-79
2022/04/14 04:05:17;;;;;;;;;;;;;;;2.04;84.25;98547.22;2591035;28;19925;-78
2022/04/14 04:06:33;;;;;;;;;;;;;;;2.04;84.00;98551.53;2590016;28;19932;-78
2022/04/14 04:07:48;;;;;;;;;;;;;;;2.00;84.44;98550.63;2591738;28;20355;-79
2022/04/14 04:09:03;;;;;;;;;;;;;;;2.00;84.74;98555.81;2591660;28;20280;-80
2022/04/14 04:10:19;;;;;;;;;;;;;;;2.00;84.95;98555.81;2590535;28;20007;-79
2022/04/14 04:11:34;;;;;;;;;;;;;;;2.01;84.60;98557.53;2590836;28;19984;-79
2022/04/14 04:12:50;;;;;;;;;;;;;;;2.01;85.19;98561.81;2591752;28;20031;-79
2022/04/14 04:14:06;;;;;;;;;;;;;;;2.04;85.80;98557.56;2590540;28;20094;-79
2022/04/14 04:15:21;;;;;;;;;;;;;;;2.08;85.33;98563.63;2590428;28;19941;-78
2022/04/14 04:16:36;;;;;;;;;;;;;;;2.06;85.28;98567.91;2593258;28;19956;-80
2022/04/14 04:17:52;;;;;;;;;;;;;;;2.06;85.19;98561.00;2591794;28;19929;-79
2022/04/14 04:19:07;;;;;;;;;;;;;;;2.08;84.85;98563.63;2590534;28;19924;-79
2022/04/14 04:20:24;;;;;;;;;;;;;;;2.06;85.12;98563.59;2591852;28;19928;-82
2022/04/14 04:21:39;;;;;;;;;;;;;;;2.05;85.12;98564.44;2591236;28;20686;-81
2022/04/14 04:22:55;;;;;;;;;;;;;;;2.04;84.53;98559.28;2590135;28;20027;-79
2022/04/14 04:24:10;;;;;;;;;;;;;;;2.03;84.22;98561.00;2589566;28;19936;-79
2022/04/14 04:25:26;;;;;;;;;;;;;;;2.02;84.07;98568.72;2591790;28;19925;-79
2022/04/14 04:26:41;;;;;;;;;;;;;;;2.00;83.75;98562.66;2589987;28;19948;-79
2022/04/14 04:27:57;;;;;;;;;;;;;;;1.95;84.22;98567.78;2590716;28;20398;-78
2022/04/14 04:29:12;;;;;;;;;;;;;;;1.89;84.45;98567.75;2590119;28;19921;-80
2022/04/14 04:30:28;;;;;;;;;;;;;;;1.88;84.71;98566.03;2591189;28;19979;-79
2022/04/14 04:31:43;;;;;;;;;;;;;;;1.86;84.08;98571.16;2590904;28;19921;-79
2022/04/14 04:33:01;;;;;;;;;;;;;;;1.85;84.37;98574.59;2590662;28;20339;-79
2022/04/14 04:34:18;;;;;;;;;;;;;;;1.79;84.35;98567.66;2591106;28;19925;-80
2022/04/14 04:35:34;;;;;;;;;;;;;;;1.79;84.18;98567.66;2590767;28;19948;-80
2022/04/14 04:36:50;;;;;;;;;;;;;;;1.81;84.62;98575.44;2590185;28;20380;-77
2022/04/14 04:38:05;;;;;;;;;;;;;;;1.83;84.66;98574.59;2590205;28;19933;-78
2022/04/14 04:39:20;;;;;;;;;;;;;;;1.83;85.89;98573.72;2591388;28;20224;-78
2022/04/14 04:40:36;;;;;;;;;;;;;;;1.82;87.43;98574.56;2592293;28;19928;-78
2022/04/14 04:41:51;;;;;;;;;;;;;;;1.76;88.09;98572.78;2590510;28;19925;-78
2022/04/14 04:43:08;;;;;;;;;;;;;;;1.89;89.34;98580.66;2592329;28;19932;-79
2022/04/14 04:44:24;;;;;;;;;;;;;;;2.17;90.22;98574.03;2590154;28;19971;-78
2022/04/14 04:45:39;;;;;;;;;;;;;;;2.20;89.01;98576.63;2590606;28;20003;-79
2022/04/14 04:46:55;;;;;;;;;;;;;;;2.34;89.82;98576.72;2591890;28;20343;-78
2022/04/14 04:48:10;;;;;;;;;;;;;;;2.52;90.42;98582.91;2591330;28;20426;-78
2022/04/14 04:49:26;;;;;;;;;;;;;;;2.66;90.18;98585.56;2591614;28;19925;-79
2022/04/14 04:50:41;;;;;;;;;;;;;;;2.66;89.96;98586.44;2589948;28;20387;-79
2022/04/14 04:51:57;;;;;;;;;;;;;;;2.67;89.71;98584.69;2591330;28;19950;-79
2022/04/14 04:53:12;;;;;;;;;;;;;;;2.71;89.33;98583.84;2591359;28;19924;-79
2022/04/14 04:54:27;;;;;;;;;;;;;;;2.63;88.98;98586.38;2591827;28;19948;-79
2022/04/14 04:55:43;;;;;;;;;;;;;;;2.63;88.66;98582.97;2592089;28;19925;-79
2022/04/14 04:56:58;;;;;;;;;;;;;;;2.64;87.98;98582.94;2592104;28;19926;-79
2022/04/14 04:58:14;;;;;;;;;;;;;;;2.61;87.32;98582.09;2592299;28;19963;-78
2022/04/14 04:59:29;;;;;;;;;;;;;;;2.54;87.01;98584.63;2592510;28;20015;-78
2022/04/14 05:00:45;;;;;;;;;;;;;;;2.47;86.70;98582.84;2592361;28;19968;-79
2022/04/14 05:02:00;;;;;;;;;;;;;;;2.43;86.53;98575.91;2592255;28;19928;-80
2022/04/14 05:03:16;;;;;;;;;;;;;;;2.39;86.79;98582.81;2591627;28;20394;-81
2022/04/14 05:04:31;;;;;;;;;;;;;;;2.39;86.62;98581.94;2593271;28;19925;-80
2022/04/14 05:05:47;;;;;;;;;;;;;;;2.39;86.69;98580.22;2593076;28;20480;-79
2022/04/14 05:07:05;;;;;;;;;;;;;;;2.42;87.09;98578.50;2591642;28;20503;-79
2022/04/14 05:08:20;;;;;;;;;;;;;;;2.44;87.45;98584.56;2591718;28;19932;-79
2022/04/14 05:09:35;;;;;;;;;;;;;;;2.47;87.31;98581.97;2591491;28;19932;-79
2022/04/14 05:10:51;;;;;;;;;;;;;;;2.63;87.75;98581.22;2591238;28;19974;-79
2022/04/14 05:12:06;;;;;;;;;;;;;;;2.67;87.92;98583.00;2591213;28;20913;-79
2022/04/14 05:13:22;;;;;;;;;;;;;;;2.73;87.31;98579.56;2591859;28;20031;-82
2022/04/14 05:14:38;;;;;;;;;;;;;;;2.71;88.02;98577.84;2593230;28;19936;-83
2022/04/14 05:15:53;;;;;;;;;;;;;;;2.68;88.20;98595.06;2591260;28;19968;-84
2022/04/14 05:17:08;;;;;;;;;;;;;;;2.73;88.10;98589.91;2592287;28;20320;-82
2022/04/14 05:18:24;;;;;;;;;;;;;;;2.71;88.21;98588.16;2592952;28;19925;-82
2022/04/14 05:19:39;;;;;;;;;;;;;;;2.89;88.21;98587.41;2594199;28;19924;-83
2022/04/14 05:20:55;;;;;;;;;;;;;;;3.05;87.83;98586.63;2593167;28;20015;-83
2022/04/14 05:22:10;;;;;;;;;;;;;;;3.08;87.34;98581.47;2594302;28;20434;-83
2022/04/14 05:23:26;;;;;;;;;;;;;;;2.99;87.46;98580.56;2592930;28;20348;-82
2022/04/14 05:24:41;;;;;;;;;;;;;;;2.95;87.60;98585.72;2592160;28;19970;-82
2022/04/14 05:25:56;;;;;;;;;;;;;;;2.96;87.54;98578.81;2590914;28;19956;-81
2022/04/14 05:27:12;;;;;;;;;;;;;;;2.97;87.52;98583.13;2592475;28;20376;-81
2022/04/14 05:28:27;;;;;;;;;;;;;;;3.00;87.68;98582.28;2591135;28;19924;-81
2022/04/14 05:29:43;;;;;;;;;;;;;;;3.09;87.81;98577.16;2594240;28;19925;-82
2022/04/14 05:30:58;;;;;;;;;;;;;;;3.08;87.57;98578.88;2592205;28;19971;-81
2022/04/14 05:32:15;;;;;;;;;;;;;;;3.15;87.44;98571.16;2592697;28;19967;-81
2022/04/14 05:33:31;;;;;;;;;;;;;;;3.18;87.54;98574.59;2591018;28;19929;-81
2022/04/14 05:34:46;;;;;;;;;;;;;;;3.20;87.53;98577.22;2592252;28;19921;-80
2022/04/14 05:36:01;;;;;;;;;;;;;;;3.28;87.59;98577.22;2592734;28;19921;-80
2022/04/14 05:37:17;;;;;;;;;;;;;;;3.43;87.42;98572.09;2589950;28;19928;-80
2022/04/14 05:38:32;;;;;;;;;;;;;;;3.44;87.25;98570.41;2591685;28;20014;-79
2022/04/14 05:39:47;;;;;;;;;;;;;;;3.47;87.13;98576.41;2591959;28;19922;-79
2022/04/14 05:41:03;;;;;;;;;;;;;;;3.55;87.05;98581.63;2591518;28;20360;-80
2022/04/14 05:42:18;;;;;;;;;;;;;;;3.61;86.46;98575.59;2591083;28;20154;-80
2022/04/14 05:43:34;;;;;;;;;;;;;;;3.65;85.97;98577.34;2591744;28;20364;-81
2022/04/14 05:44:49;;;;;;;;;;;;;;;3.68;86.30;98582.53;2593109;28;19934;-82
2022/04/14 05:46:05;;;;;;;;;;;;;;;3.79;85.80;98579.94;2591522;28;19946;-81
2022/04/14 05:47:23;;;;;;;;;;;;;;;3.77;85.80;98579.97;2592056;28;20150;-79
2022/04/14 05:48:39;;;;;;;;;;;;;;;3.85;85.52;98576.50;2592310;28;19964;-80
2022/04/14 05:49:54;;;;;;;;;;;;;;;3.85;85.25;98576.50;2592978;28;20364;-80
2022/04/14 05:51:09;;;;;;;;;;;;;;;3.93;84.64;98575.66;2592600;28;19983;-80
2022/04/14 05:52:25;;;;;;;;;;;;;;;3.96;85.22;98580.81;2593238;28;19921;-80
2022/04/14 05:53:40;;;;;;;;;;;;;;;4.03;85.46;98576.53;2593499;28;19983;-79
2022/04/14 05:54:58;;;;;;;;;;;;;;;4.07;85.36;98577.38;2592009;28;20372;-79
2022/04/14 05:56:13;;;;;;;;;;;;;;;4.09;85.13;98573.94;2594288;28;19928;-79
2022/04/14 05:57:29;;;;;;;;;;;;;;;4.19;84.90;98568.75;2592203;28;19925;-83
2022/04/14 05:58:44;;;;;;;;;;;;;;;4.27;85.10;98576.53;2590936;28;20311;-79
2022/04/14 05:59:59;;;;;;;;;;;;;;;4.36;84.35;98571.34;2591453;28;19924;-80
2022/04/14 06:01:15;;;;;;;;;;;;;;;4.35;84.49;98569.63;2593342;28;19925;-80
2022/04/14 06:02:30;;;;;;;;;;;;;;;4.46;84.08;98570.47;2591660;28;20047;-79
2022/04/14 06:03:46;;;;;;;;;;;;;;;4.45;84.26;98568.75;2591263;28;20012;-79
2022/04/14 06:05:02;;;;;;;;;;;;;;;4.51;83.92;98565.28;2590070;28;20357;-79
2022/04/14 06:06:17;;;;;;;;;;;;;;;4.47;84.30;98572.19;2589249;28;19990;-79
2022/04/14 06:07:33;;;;;;;;;;;;;;;4.53;84.20;98567.00;2591411;28;19929;-79
2022/04/14 06:08:48;;;;;;;;;;;;;;;4.58;84.54;98566.97;2590430;28;20425;-79
2022/04/14 06:10:04;;;;;;;;;;;;;;;4.59;84.35;98566.13;2592906;28;19921;-79
2022/04/14 06:11:19;;;;;;;;;;;;;;;4.60;85.06;98565.25;2592879;28;19921;-79
2022/04/14 06:12:35;;;;;;;;;;;;;;;4.62;84.38;98566.13;2592514;28;20248;-79
2022/04/14 06:13:50;;;;;;;;;;;;;;;4.68;83.57;98565.25;2592118;28;19925;-79
2022/04/14 06:15:06;;;;;;;;;;;;;;;4.72;83.57;98572.16;2592979;28;20093;-79
2022/04/14 06:16:21;;;;;;;;;;;;;;;4.78;83.55;98563.50;2591067;28;19983;-80
2022/04/14 06:17:36;;;;;;;;;;;;;;;4.78;84.17;98566.94;2591642;28;19925;-81
2022/04/14 06:18:52;;;;;;;;;;;;;;;4.83;83.97;98566.94;2590583;28;19925;-80
2022/04/14 06:20:07;;;;;;;;;;;;;;;4.93;82.39;98568.66;2589827;28;19932;-80
2022/04/14 06:21:23;;;;;;;;;;;;;;;5.01;82.95;98565.16;2590731;28;19967;-79
2022/04/14 06:22:39;;;;;;;;;;;;;;;5.06;82.65;98572.03;2590450;28;19926;-80
2022/04/14 06:23:56;;;;;;;;;;;;;;;5.14;83.11;98566.81;2589266;28;19925;-80
2022/04/14 06:25:16;;;;;;;;;;;;;;;5.25;83.18;98568.53;2593109;28;20007;-80
2022/04/14 06:26:32;;;;;;;;;;;;;;;5.35;82.42;98568.47;2591310;28;19930;-80
2022/04/14 06:27:48;;;;;;;;;;;;;;;5.39;82.05;98573.66;2592005;28;20458;-80
2022/04/14 06:29:04;;;;;;;;;;;;;;;5.44;81.69;98571.91;2590393;28;19922;-80
2022/04/14 06:30:20;;;;;;;;;;;;;;;5.55;80.71;98571.84;2590750;28;20412;-79
2022/04/14 06:31:35;;;;;;;;;;;;;;;5.70;80.24;98576.09;2590864;28;20007;-79
2022/04/14 06:33:12;;;;;;;;;;;;;;;5.75;79.27;98580.38;2591497;28;19930;-81
2022/04/14 06:34:31;;;;;;;;;;;;;;;5.88;79.65;98581.16;2592721;28;19928;-79
2022/04/14 06:35:46;;;;;;;;;;;;;;;5.89;79.87;98574.25;2592735;28;19925;-77
2022/04/14 06:37:02;;;;;;;;;;;;;;;5.94;80.60;98575.94;2594590;28;19991;-79
2022/04/14 06:38:19;;;;;;;;;;;;;;;6.03;81.66;98576.75;2592332;28;19921;-78
2022/04/14 06:39:35;;;;;;;;;;;;;;;6.16;79.72;98580.97;2593090;28;19925;-79
2022/04/14 06:40:50;;;;;;;;;;;;;;;6.24;79.24;98580.06;2592105;28;19925;-80
2022/04/14 06:42:06;;;;;;;;;;;;;;;6.26;78.15;98578.31;2591968;28;19925;-78